LNG Imo — ZCDT6 — position and weather

sailwx.info

Track history (hours):
 
Tides and Currents Weather Stations Pressure Air Temp Water Temp Dewpoint Dewpoint Depression Visibility Wind Speed Wind Dir Waves Ship Positions

LNG Imo

Last reported at 2015-Apr-01 15:20 UTC. Time now 2015-Apr-18 13:14 UTC.
Position N 07°46' W 014°57'.
Warning: this ship's position is 16 days out of date.

Length 288 m; draft 9.5 m.

Type: Ship (hazmat cat D). MMSI: 310565000.

Date/timePositionNaut miles runAvg speedWind from/ knotsBaromVisibWave heightAir tempDewpointWater temp
2015-Apr-01 15:20N 07°46' W 014°57'1011.2
2015-Apr-01 14:24N 07°53' W 015°05'9211.1
2015-Apr-01 06:04N 08°58' W 016°11'811.3
2015-Apr-01 05:22N 09°03' W 016°17'1011.3
2015-Apr-01 04:28N 09°10' W 016°24'25310.6
2015-Mar-31 04:31N 12°57' W 018°18'19811.6
2015-Mar-30 11:22N 16°15' W 018°18'5510.7
2015-Mar-30 06:13N 17°10' W 018°18'711.2
2015-Mar-30 05:33N 17°18' W 018°18'1510.9
2015-Mar-30 04:10N 17°33' W 018°18'811.2
2015-Mar-30 03:26N 17°41' W 018°18'1011.2
2015-Mar-30 02:33N 17°51' W 018°18'1311.3
2015-Mar-30 01:24N 18°04' W 018°18'1011.2
2015-Mar-30 00:32N 18°14' W 018°18'1111.4
2015-Mar-29 23:32N 18°25' W 018°18'1111.4
2015-Mar-29 22:33N 18°36' W 018°18'1111.2
2015-Mar-29 21:33N 18°48' W 018°18'1311.1
2015-Mar-29 20:23N 19°01' W 018°18'911.2
2015-Mar-29 19:33N 19°10' W 018°18'1211.0
2015-Mar-29 18:30N 19°21' W 018°18'2110.6
2015-Mar-29 16:33N 19°42' W 018°18'1110.7
2015-Mar-29 15:30N 19°53' W 018°18'1111.0
2015-Mar-29 14:33N 20°04' W 018°18'1210.4
2015-Mar-29 13:26N 20°15' W 018°18'910.5
2015-Mar-29 12:33N 20°25' W 018°18'7 6.8
2015-Mar-29 11:33N 20°32' W 018°18'1511.2
2015-Mar-29 10:15N 20°46' W 018°18'2211.0
2015-Mar-29 08:17N 21°08' W 018°16'811.3
2015-Mar-29 07:34N 21°15' W 018°13'1311.1
2015-Mar-29 06:24N 21°28' W 018°09'41510.9
2015-Mar-27 16:19N 27°24' W 014°14'1111.0
2015-Mar-27 15:17N 27°32' W 014°05'2111.0
2015-Mar-27 13:20N 27°49' W 013°50'1910.8
2015-Mar-27 11:33N 28°04' W 013°37'3411.2
2015-Mar-27 08:32N 28°32' W 013°16'  
2015-Mar-24 11:32N 37°26' W 001°06'10 0.4
2015-Mar-23 08:33N 37°34' W 000°58'3 1.9
2015-Mar-23 07:04N 37°33' W 001°01'1 2.4
2015-Mar-23 06:33N 37°32' W 001°02'22115.8
2015-Mar-22 16:34N 35°60' W 005°13'  
Track history (hours):
 
Tides and Currents Weather Stations Pressure Air Temp Water Temp Dewpoint Dewpoint Depression Visibility Wind Speed Wind Dir Waves Ship Positions

LNG Imo

Last reported at 2015-Apr-01 15:20 UTC. Time now 2015-Apr-18 13:14 UTC.
Position N 07°46' W 014°57'.
Warning: this ship's position is 16 days out of date.

Length 288 m; draft 9.5 m.

Type: Ship (hazmat cat D). MMSI: 310565000.

Date/timePositionNaut miles runAvg speedWind from/ knotsBaromVisibWave heightAir tempDewpointWater temp
2015-Apr-01 15:20N 07°46' W 014°57'1011.2
2015-Apr-01 14:24N 07°53' W 015°05'9211.1
2015-Apr-01 06:04N 08°58' W 016°11'811.3
2015-Apr-01 05:22N 09°03' W 016°17'1011.3
2015-Apr-01 04:28N 09°10' W 016°24'25310.6
2015-Mar-31 04:31N 12°57' W 018°18'19811.6
2015-Mar-30 11:22N 16°15' W 018°18'5510.7
2015-Mar-30 06:13N 17°10' W 018°18'711.2
2015-Mar-30 05:33N 17°18' W 018°18'1510.9
2015-Mar-30 04:10N 17°33' W 018°18'811.2
2015-Mar-30 03:26N 17°41' W 018°18'1011.2
2015-Mar-30 02:33N 17°51' W 018°18'1311.3
2015-Mar-30 01:24N 18°04' W 018°18'1011.2
2015-Mar-30 00:32N 18°14' W 018°18'1111.4
2015-Mar-29 23:32N 18°25' W 018°18'1111.4
2015-Mar-29 22:33N 18°36' W 018°18'1111.2
2015-Mar-29 21:33N 18°48' W 018°18'1311.1
2015-Mar-29 20:23N 19°01' W 018°18'911.2
2015-Mar-29 19:33N 19°10' W 018°18'1211.0
2015-Mar-29 18:30N 19°21' W 018°18'2110.6
2015-Mar-29 16:33N 19°42' W 018°18'1110.7
2015-Mar-29 15:30N 19°53' W 018°18'1111.0
2015-Mar-29 14:33N 20°04' W 018°18'1210.4
2015-Mar-29 13:26N 20°15' W 018°18'910.5
2015-Mar-29 12:33N 20°25' W 018°18'7 6.8
2015-Mar-29 11:33N 20°32' W 018°18'1511.2
2015-Mar-29 10:15N 20°46' W 018°18'2211.0
2015-Mar-29 08:17N 21°08' W 018°16'811.3
2015-Mar-29 07:34N 21°15' W 018°13'1311.1
2015-Mar-29 06:24N 21°28' W 018°09'41510.9
2015-Mar-27 16:19N 27°24' W 014°14'1111.0
2015-Mar-27 15:17N 27°32' W 014°05'2111.0
2015-Mar-27 13:20N 27°49' W 013°50'1910.8
2015-Mar-27 11:33N 28°04' W 013°37'3411.2
2015-Mar-27 08:32N 28°32' W 013°16'  
2015-Mar-24 11:32N 37°26' W 001°06'10 0.4
2015-Mar-23 08:33N 37°34' W 000°58'3 1.9
2015-Mar-23 07:04N 37°33' W 001°01'1 2.4
2015-Mar-23 06:33N 37°32' W 001°02'22115.8
2015-Mar-22 16:34N 35°60' W 005°13'  

Dump ship's entire track history